Spottswood, Virginia
Current Conditions -  °F | °C
As of 12:55 PM on Saturday 25 Oct 2014 (Local Time) from KW13 Reporting Station
Clear Clear  
Wind Chill: 64°   Ceiling: Unl
Heat Index: 64°   Visibility: 10mi
Dew Point: 39°   Wind: 9mph
Humidity: 40%   Direction: 240°WSW
Pressure: 29.95"   Gusts: 17mph
Location:  37.95°N, 79.21°W
Report Text: KW13 251655Z AUTO 24008G15KT 10SM CLR 18/04 A2995 RMK AO1 T01770038
Loading
Personal Weather Stations






























Interactive Weather Map
Tropical Storm Tracking
New forecast layout! Learn more

10-Day Weather Forecast

Advertisements
Track Severe Weather on mobile